Time;durP1;ratioP1;P1;durP2;ratioP2;P2;SDS_P1;SDS_P2;PMS_P1;PMS_P2;Temp;Humidity;BMP_temperature;BMP_pressure;BME280_temperature;BME280_humidity;BME280_pressure;Samples;Min_cycle;Max_cycle;Signal;HPM_P1;HPM_P2
2023/04/16 00:01:56;;;;;;;4.23;3.83;;;6.10;99.90;;;;;;5076033;28;20484;-53
2023/04/16 00:04:23;;;;;;;3.83;3.50;;;6.10;99.90;;;;;;5076202;28;20472;-54
2023/04/16 00:06:50;;;;;;;4.50;3.40;;;6.10;99.90;;;;;;5076317;28;20444;-53
2023/04/16 00:09:18;;;;;;;5.20;4.27;;;6.10;99.90;;;;;;5076084;28;20472;-55
2023/04/16 00:11:45;;;;;;;3.63;3.33;;;5.90;99.90;;;;;;5075293;28;20539;-55
2023/04/16 00:14:12;;;;;;;4.67;4.27;;;6.00;99.90;;;;;;5076297;28;20857;-53
2023/04/16 00:16:39;;;;;;;4.20;3.80;;;6.00;99.90;;;;;;5075594;28;20445;-56
2023/04/16 00:19:06;;;;;;;5.30;4.70;;;6.00;99.90;;;;;;5074580;28;20524;-53
2023/04/16 00:21:33;;;;;;;4.70;4.20;;;6.00;99.90;;;;;;5074363;28;20994;-53
2023/04/16 00:24:00;;;;;;;7.60;5.70;;;5.90;99.90;;;;;;5074398;28;20471;-54
2023/04/16 00:26:28;;;;;;;5.00;4.50;;;6.00;99.90;;;;;;5074513;28;20469;-54
2023/04/16 00:28:55;;;;;;;4.20;3.80;;;5.90;99.90;;;;;;5075602;28;20472;-53
2023/04/16 00:31:27;;;;;;;4.90;4.40;;;6.00;99.90;;;;;;5075026;28;20556;-56
2023/04/16 00:33:54;;;;;;;4.40;4.00;;;6.00;99.90;;;;;;5075968;28;20485;-54
2023/04/16 00:36:21;;;;;;;4.67;4.13;;;6.10;99.90;;;;;;5075515;28;20445;-53
2023/04/16 00:38:48;;;;;;;5.40;4.47;;;6.10;99.90;;;;;;5076116;28;20531;-53
2023/04/16 00:41:15;;;;;;;4.90;4.50;;;6.10;99.90;;;;;;5075256;28;20548;-53
2023/04/16 00:43:44;;;;;;;5.10;4.60;;;6.20;99.90;;;;;;5076225;28;20449;-53
2023/04/16 00:46:11;;;;;;;6.47;5.47;;;6.20;99.90;;;;;;5075791;28;20508;-53
2023/04/16 00:48:40;;;;;;;4.77;4.17;;;6.20;99.90;;;;;;5075783;28;20853;-53
2023/04/16 00:51:08;;;;;;;4.50;3.53;;;6.20;99.90;;;;;;5075393;28;20767;-53
2023/04/16 00:53:36;;;;;;;3.53;3.23;;;6.20;99.90;;;;;;5076116;28;20479;-54
2023/04/16 00:56:03;;;;;;;6.13;4.10;;;6.20;99.90;;;;;;5074649;28;20494;-54
2023/04/16 00:58:31;;;;;;;4.30;3.90;;;6.10;99.90;;;;;;5074633;28;20476;-53
2023/04/16 01:00:59;;;;;;;4.47;4.10;;;6.10;99.90;;;;;;5074012;28;21057;-54
2023/04/16 01:03:32;;;;;;;5.60;3.70;;;6.00;99.90;;;;;;5072964;28;20486;-55
2023/04/16 01:05:59;;;;;;;5.27;4.70;;;5.90;99.90;;;;;;5074082;28;20480;-54
2023/04/16 01:08:26;;;;;;;4.83;4.33;;;5.90;99.90;;;;;;5074596;28;20957;-55
2023/04/16 01:10:53;;;;;;;5.33;4.83;;;5.90;99.90;;;;;;5074674;28;20543;-53
2023/04/16 01:13:20;;;;;;;4.57;4.17;;;5.90;99.90;;;;;;5074994;28;21161;-53
2023/04/16 01:15:47;;;;;;;5.70;5.10;;;5.90;99.90;;;;;;5076194;28;20472;-54
2023/04/16 01:18:16;;;;;;;5.20;4.70;;;5.90;99.90;;;;;;5075850;28;21001;-53
2023/04/16 01:20:45;;;;;;;4.77;4.27;;;5.90;99.90;;;;;;5076122;28;20497;-53
2023/04/16 01:23:12;;;;;;;5.30;4.80;;;5.90;99.90;;;;;;5075435;28;20503;-53
2023/04/16 01:25:39;;;;;;;5.20;4.70;;;5.80;99.90;;;;;;5075480;28;20444;-58
2023/04/16 01:28:06;;;;;;;5.57;5.07;;;5.80;99.90;;;;;;5075366;28;20444;-53
2023/04/16 01:30:33;;;;;;;4.70;4.40;;;5.90;99.90;;;;;;5075324;28;20464;-53
2023/04/16 01:33:00;;;;;;;4.97;4.47;;;5.90;99.90;;;;;;5074949;28;20967;-53
2023/04/16 01:35:27;;;;;;;5.73;4.03;;;6.00;99.90;;;;;;5075601;28;20519;-55
2023/04/16 01:37:55;;;;;;;4.83;4.33;;;5.90;99.90;;;;;;5074682;28;20467;-54
2023/04/16 01:40:22;;;;;;;4.13;3.63;;;5.90;99.90;;;;;;5074485;28;20907;-53
2023/04/16 01:42:49;;;;;;;5.70;4.70;;;5.90;99.90;;;;;;5074764;28;20436;-54
2023/04/16 01:45:16;;;;;;;7.00;4.10;;;5.80;99.90;;;;;;5075229;28;20447;-54
2023/04/16 01:47:43;;;;;;;5.17;3.97;;;5.60;99.90;;;;;;5074823;28;20531;-53
2023/04/16 01:50:11;;;;;;;4.43;3.93;;;5.70;99.90;;;;;;5074156;28;20456;-54
2023/04/16 01:52:38;;;;;;;5.10;4.60;;;5.70;99.90;;;;;;5074759;28;20487;-53
2023/04/16 01:55:07;;;;;;;4.17;3.70;;;5.80;99.90;;;;;;5074813;28;20447;-53
2023/04/16 01:57:34;;;;;;;4.50;4.10;;;5.70;99.90;;;;;;5074745;28;21002;-53
2023/04/16 02:00:01;;;;;;;5.40;4.43;;;5.70;99.90;;;;;;5075040;28;20471;-53
2023/04/16 02:02:28;;;;;;;8.27;3.90;;;5.70;99.90;;;;;;5074386;28;20480;-53
2023/04/16 02:04:56;;;;;;;5.33;4.30;;;5.80;99.90;;;;;;5074714;28;20543;-54
2023/04/16 02:07:23;;;;;;;7.53;4.63;;;5.80;99.90;;;;;;5074817;28;20547;-55
2023/04/16 02:09:51;;;;;;;4.20;3.80;;;5.70;99.90;;;;;;5074210;28;20468;-53
2023/04/16 02:12:19;;;;;;;5.37;4.63;;;5.80;99.90;;;;;;5074399;28;20472;-53
2023/04/16 02:14:46;;;;;;;5.20;4.70;;;5.70;99.90;;;;;;5075070;28;20441;-54
2023/04/16 02:17:14;;;;;;;4.07;3.70;;;5.70;99.90;;;;;;5074273;28;20529;-53
2023/04/16 02:19:41;;;;;;;8.17;4.47;;;5.70;99.90;;;;;;5074141;28;20488;-53
2023/04/16 02:22:08;;;;;;;4.83;3.97;;;5.70;99.90;;;;;;5074523;28;20515;-54
2023/04/16 02:24:35;;;;;;;5.03;4.50;;;5.60;99.90;;;;;;5074307;28;20449;-53
2023/04/16 02:27:01;;;;;;;5.27;4.77;;;5.70;99.90;;;;;;5074603;28;20472;-54
2023/04/16 02:29:30;;;;;;;4.80;4.40;;;5.70;99.90;;;;;;5074231;28;20487;-53
2023/04/16 02:31:58;;;;;;;5.30;4.80;;;5.80;99.90;;;;;;5074946;28;20502;-53
2023/04/16 02:34:25;;;;;;;4.50;4.10;;;5.80;99.90;;;;;;5071530;28;20460;-54
2023/04/16 02:36:53;;;;;;;4.67;4.27;;;5.80;99.90;;;;;;5070838;28;20448;-53
2023/04/16 02:39:20;;;;;;;4.90;4.47;;;5.70;99.90;;;;;;5057427;28;20449;-53
2023/04/16 02:41:47;;;;;;;6.17;5.63;;;5.70;99.90;;;;;;5052316;28;20511;-53
2023/04/16 02:44:13;;;;;;;6.20;5.50;;;5.60;99.90;;;;;;5053005;28;20522;-54
2023/04/16 02:46:42;;;;;;;6.60;5.47;;;5.60;99.90;;;;;;5053049;28;20507;-55
2023/04/16 02:49:09;;;;;;;5.10;4.60;;;5.70;99.90;;;;;;5052724;28;20504;-54
2023/04/16 02:51:35;;;;;;;5.70;5.10;;;5.70;99.90;;;;;;5053259;28;20456;-53
2023/04/16 02:54:02;;;;;;;5.30;4.80;;;5.70;99.90;;;;;;5053549;28;20481;-53
2023/04/16 02:56:29;;;;;;;5.90;5.40;;;5.80;99.90;;;;;;5053900;28;20445;-53
2023/04/16 02:58:56;;;;;;;6.33;5.20;;;5.80;99.90;;;;;;5054107;28;20449;-52
2023/04/16 03:01:23;;;;;;;6.87;5.77;;;5.90;99.90;;;;;;5053369;28;20551;-55
2023/04/16 03:03:51;;;;;;;5.90;4.90;;;5.90;99.90;;;;;;5053637;28;20524;-53
2023/04/16 03:06:18;;;;;;;5.90;5.30;;;5.80;99.90;;;;;;5053697;28;20505;-53
2023/04/16 03:08:45;;;;;;;5.10;4.60;;;5.90;99.90;;;;;;5053782;28;20532;-53
2023/04/16 03:11:12;;;;;;;5.23;4.73;;;6.00;99.90;;;;;;5053038;28;21011;-53
2023/04/16 03:13:39;;;;;;;5.83;4.70;;;6.00;99.90;;;;;;5053799;28;20488;-53
2023/04/16 03:16:07;;;;;;;6.70;6.10;;;6.10;99.90;;;;;;5053815;28;20446;-50
2023/04/16 03:18:34;;;;;;;5.43;4.93;;;6.00;99.90;;;;;;5053882;28;20537;-50
2023/04/16 03:21:02;;;;;;;5.33;4.67;;;5.90;99.90;;;;;;5053898;28;20535;-51
2023/04/16 03:23:29;;;;;;;8.50;6.80;;;5.80;99.90;;;;;;5053526;28;20920;-51
2023/04/16 03:25:56;;;;;;;6.20;5.60;;;5.70;99.90;;;;;;5055191;28;20475;-51
2023/04/16 03:28:23;;;;;;;5.20;4.70;;;5.70;99.90;;;;;;5057748;28;20524;-51
2023/04/16 03:30:51;;;;;;;6.40;5.77;;;5.70;99.90;;;;;;5057489;28;20501;-52
2023/04/16 03:33:18;;;;;;;4.93;4.53;;;5.80;99.90;;;;;;5057519;28;21026;-51
2023/04/16 03:35:45;;;;;;;6.60;5.30;;;5.80;99.90;;;;;;5058188;28;20441;-52
2023/04/16 03:38:13;;;;;;;6.07;5.47;;;5.90;99.90;;;;;;5057045;28;20485;-53
2023/04/16 03:40:40;;;;;;;6.27;4.73;;;5.90;99.90;;;;;;5056761;28;20504;-52
2023/04/16 03:43:07;;;;;;;6.23;5.63;;;5.90;99.90;;;;;;5056383;28;20507;-52
2023/04/16 03:45:34;;;;;;;5.37;4.87;;;5.80;99.90;;;;;;5057988;28;20974;-51
2023/04/16 03:48:01;;;;;;;5.23;4.83;;;5.70;99.90;;;;;;5058122;28;20532;-54
2023/04/16 03:50:28;;;;;;;4.90;4.40;;;5.70;99.90;;;;;;5057202;28;20508;-52
2023/04/16 03:52:55;;;;;;;5.80;5.20;;;5.70;99.90;;;;;;5057161;28;20433;-51
2023/04/16 03:55:23;;;;;;;6.53;6.00;;;5.70;99.90;;;;;;5056770;28;20445;-52
2023/04/16 03:57:50;;;;;;;5.63;5.10;;;5.80;99.90;;;;;;5056458;28;20967;-52
2023/04/16 04:00:17;;;;;;;4.80;4.03;;;5.80;99.90;;;;;;5057519;28;20465;-51
2023/04/16 04:02:44;;;;;;;5.13;4.70;;;5.80;99.90;;;;;;5056729;28;20840;-52
2023/04/16 04:05:11;;;;;;;7.87;5.23;;;5.90;99.90;;;;;;5057316;28;20448;-52
2023/04/16 04:07:38;;;;;;;4.90;4.40;;;5.90;99.90;;;;;;5057288;28;20441;-51
2023/04/16 04:10:06;;;;;;;5.57;4.80;;;5.90;99.90;;;;;;5056961;28;20491;-52
2023/04/16 04:12:34;;;;;;;6.83;4.70;;;5.90;99.90;;;;;;5056636;28;20559;-52
2023/04/16 04:15:01;;;;;;;5.30;4.80;;;5.90;99.90;;;;;;5057320;28;20465;-52
2023/04/16 04:17:28;;;;;;;6.20;5.63;;;5.90;99.90;;;;;;5056714;28;20460;-52
2023/04/16 04:19:55;;;;;;;5.37;4.83;;;5.90;99.90;;;;;;5057224;28;20516;-54
2023/04/16 04:22:22;;;;;;;7.73;5.07;;;5.90;99.90;;;;;;5056030;28;20503;-53
2023/04/16 04:24:49;;;;;;;4.93;4.37;;;5.80;99.90;;;;;;5056944;28;20728;-53
2023/04/16 04:27:16;;;;;;;5.70;5.20;;;5.80;99.90;;;;;;5056555;28;20892;-52
2023/04/16 04:29:44;;;;;;;5.20;4.63;;;5.70;99.90;;;;;;5071432;28;20477;-53
2023/04/16 04:32:11;;;;;;;5.57;5.10;;;5.60;99.90;;;;;;5076608;28;21007;-52
2023/04/16 04:34:38;;;;;;;5.93;5.33;;;5.60;99.90;;;;;;5076629;28;20481;-54
2023/04/16 04:37:05;;;;;;;4.67;4.27;;;5.60;99.90;;;;;;5075682;28;20523;-53
2023/04/16 04:39:31;;;;;;;6.27;5.67;;;5.70;99.90;;;;;;5076009;28;20620;-53
2023/04/16 04:41:58;;;;;;;5.27;4.77;;;5.80;99.90;;;;;;5075970;28;20991;-53
2023/04/16 04:44:25;;;;;;;4.97;4.57;;;5.90;99.90;;;;;;5076772;28;20472;-53
2023/04/16 04:46:53;;;;;;;6.93;5.30;;;5.90;99.90;;;;;;5076409;28;20878;-53
2023/04/16 04:49:20;;;;;;;6.53;5.00;;;5.90;99.90;;;;;;5076125;28;20532;-53
2023/04/16 04:51:48;;;;;;;5.07;4.57;;;6.00;99.90;;;;;;5076456;28;20489;-53
2023/04/16 04:54:15;;;;;;;5.87;5.33;;;5.90;99.90;;;;;;5076449;28;20453;-53
2023/04/16 04:56:44;;;;;;;5.70;4.90;;;5.80;99.90;;;;;;5076003;28;20449;-52
2023/04/16 04:59:11;;;;;;;6.07;5.47;;;5.80;99.90;;;;;;5076811;28;20445;-53
2023/04/16 05:01:38;;;;;;;8.40;6.33;;;5.70;99.90;;;;;;5076455;28;20540;-53
2023/04/16 05:04:07;;;;;;;7.83;6.60;;;5.70;99.90;;;;;;5076404;28;20445;-53
2023/04/16 05:06:34;;;;;;;7.50;6.10;;;5.70;99.90;;;;;;5075954;28;20472;-53
2023/04/16 05:09:00;;;;;;;7.33;6.60;;;5.70;99.90;;;;;;5076344;28;20843;-52
2023/04/16 05:11:27;;;;;;;8.30;7.50;;;5.80;99.90;;;;;;5075411;28;20468;-52
2023/04/16 05:13:54;;;;;;;7.30;6.60;;;5.70;99.90;;;;;;5075575;28;20528;-51
2023/04/16 05:16:21;;;;;;;6.60;5.80;;;5.80;99.90;;;;;;5076358;28;20464;-52
2023/04/16 05:18:49;;;;;;;7.13;6.30;;;5.80;99.90;;;;;;5076483;28;20543;-51
2023/04/16 05:21:17;;;;;;;7.40;6.80;;;5.80;99.90;;;;;;5075318;28;20497;-53
2023/04/16 05:23:44;;;;;;;6.90;6.20;;;5.80;99.90;;;;;;5075433;28;20987;-53
2023/04/16 05:26:11;;;;;;;8.40;7.37;;;5.80;99.90;;;;;;5072589;28;20456;-52
2023/04/16 05:28:38;;;;;;;7.40;6.67;;;5.80;99.90;;;;;;5072633;28;20875;-53
2023/04/16 05:31:05;;;;;;;8.10;5.67;;;5.90;99.90;;;;;;5073324;28;20507;-52
2023/04/16 05:33:32;;;;;;;6.00;5.43;;;5.90;99.90;;;;;;5073907;28;21022;-52
2023/04/16 05:35:59;;;;;;;8.47;6.10;;;5.90;99.90;;;;;;5074626;28;20440;-52
2023/04/16 05:38:27;;;;;;;5.70;5.20;;;6.00;99.90;;;;;;5074472;28;20440;-52
2023/04/16 05:40:54;;;;;;;6.50;5.07;;;5.90;99.90;;;;;;5073739;28;20979;-52
2023/04/16 05:43:21;;;;;;;5.90;5.40;;;5.90;99.90;;;;;;5074225;28;20817;-52
2023/04/16 05:45:48;;;;;;;5.60;5.10;;;5.90;99.90;;;;;;5074710;28;20467;-52
2023/04/16 05:48:15;;;;;;;6.03;5.47;;;5.80;99.90;;;;;;5074291;28;20875;-52
2023/04/16 05:50:42;;;;;;;7.63;6.67;;;5.80;99.90;;;;;;5074452;28;20490;-52
2023/04/16 05:53:09;;;;;;;7.67;6.47;;;5.80;99.90;;;;;;5074554;28;20465;-52
2023/04/16 05:55:38;;;;;;;7.30;6.60;;;5.80;99.90;;;;;;5075051;28;20460;-52
2023/04/16 05:58:05;;;;;;;6.60;6.00;;;5.80;99.90;;;;;;5075287;28;20452;-52
2023/04/16 06:00:32;;;;;;;10.00;6.00;;;5.80;99.90;;;;;;5074799;28;20514;-54
2023/04/16 06:02:59;;;;;;;7.60;6.67;;;5.80;99.90;;;;;;5074735;28;21065;-52
2023/04/16 06:05:26;;;;;;;7.93;6.97;;;5.90;99.90;;;;;;5074736;28;20886;-54
2023/04/16 06:07:54;;;;;;;7.50;6.90;;;6.00;99.90;;;;;;5067487;28;20469;-52
2023/04/16 06:10:21;;;;;;;8.27;7.37;;;6.00;99.90;;;;;;5053134;28;21000;-52
2023/04/16 06:12:50;;;;;;;8.20;7.03;;;6.00;99.90;;;;;;5051140;28;20837;-53
2023/04/16 06:15:17;;;;;;;9.13;6.97;;;6.00;99.90;;;;;;5053824;28;20472;-52
2023/04/16 06:17:44;;;;;;;7.70;6.90;;;6.00;99.90;;;;;;5053941;28;20983;-52
2023/04/16 06:20:12;;;;;;;9.20;7.90;;;6.10;99.90;;;;;;5053566;28;20520;-53
2023/04/16 06:22:39;;;;;;;8.00;7.03;;;6.10;99.90;;;;;;5053444;28;20515;-52
2023/04/16 06:25:07;;;;;;;8.40;7.10;;;6.10;99.90;;;;;;5051228;28;20521;-52
2023/04/16 06:27:34;;;;;;;7.87;7.07;;;6.10;99.90;;;;;;5053085;28;20529;-52
2023/04/16 06:30:02;;;;;;;8.27;7.47;;;6.10;99.90;;;;;;5053473;28;20469;-53
2023/04/16 06:32:29;;;;;;;7.53;6.80;;;6.10;99.90;;;;;;5053957;28;20484;-54
2023/04/16 06:34:57;;;;;;;8.50;7.77;;;6.10;99.90;;;;;;5053643;28;20445;-52
2023/04/16 06:37:24;;;;;;;7.70;6.90;;;6.10;99.90;;;;;;5053582;28;20787;-52
2023/04/16 06:39:51;;;;;;;8.17;7.07;;;6.10;99.90;;;;;;5053655;28;20462;-53
2023/04/16 06:42:18;;;;;;;8.57;7.77;;;6.10;99.90;;;;;;5053401;28;20521;-52
2023/04/16 06:44:45;;;;;;;8.40;7.57;;;6.10;99.90;;;;;;5053831;28;20506;-52
2023/04/16 06:47:13;;;;;;;8.20;7.30;;;6.10;99.90;;;;;;5053523;28;20520;-53
2023/04/16 06:49:40;;;;;;;7.40;6.80;;;6.10;99.90;;;;;;5053095;28;20773;-53
2023/04/16 06:52:07;;;;;;;7.30;6.60;;;6.10;99.90;;;;;;5051301;28;20512;-52
2023/04/16 06:54:34;;;;;;;8.93;8.13;;;6.10;99.90;;;;;;5053975;28;20528;-53
2023/04/16 06:57:01;;;;;;;8.70;7.90;;;6.10;99.90;;;;;;5052736;28;20442;-54
2023/04/16 06:59:28;;;;;;;8.20;7.40;;;6.10;99.90;;;;;;5052734;28;20449;-52
2023/04/16 07:01:55;;;;;;;8.47;7.67;;;6.10;99.90;;;;;;5052662;28;20485;-53
2023/04/16 07:04:23;;;;;;;9.60;7.17;;;6.10;99.90;;;;;;5053232;28;20461;-52
2023/04/16 07:06:50;;;;;;;9.90;8.37;;;6.00;99.90;;;;;;5052408;28;20461;-53
2023/04/16 07:09:17;;;;;;;10.57;8.57;;;6.10;99.90;;;;;;5053728;28;20440;-53
2023/04/16 07:11:44;;;;;;;8.40;7.60;;;6.10;99.90;;;;;;5052637;28;20450;-53
2023/04/16 07:14:11;;;;;;;9.07;8.17;;;6.10;99.90;;;;;;5050424;28;20480;-53
2023/04/16 07:16:39;;;;;;;8.83;7.97;;;6.10;99.90;;;;;;5052577;28;20476;-52
2023/04/16 07:19:06;;;;;;;8.07;7.13;;;6.20;99.90;;;;;;5052872;28;20882;-53
2023/04/16 07:21:34;;;;;;;9.70;8.67;;;6.20;99.90;;;;;;5052679;28;20496;-52
2023/04/16 07:24:01;;;;;;;9.27;7.50;;;6.20;99.90;;;;;;5052620;28;21034;-53
2023/04/16 07:26:28;;;;;;;8.37;7.43;;;6.20;99.90;;;;;;5053030;28;20469;-53
2023/04/16 07:28:55;;;;;;;8.70;7.17;;;6.20;99.90;;;;;;5053049;28;20433;-53
2023/04/16 07:31:22;;;;;;;8.13;7.23;;;6.40;99.90;;;;;;5052380;28;20535;-55
2023/04/16 07:33:49;;;;;;;7.90;7.10;;;6.50;99.90;;;;;;5051599;28;20532;-53
2023/04/16 07:36:16;;;;;;;9.57;7.80;;;6.50;99.90;;;;;;5052095;28;20833;-53
2023/04/16 07:38:44;;;;;;;10.00;7.90;;;6.60;99.90;;;;;;5053610;28;20491;-53
2023/04/16 07:41:11;;;;;;;9.27;8.40;;;6.60;99.90;;;;;;5052543;28;20453;-53
2023/04/16 07:43:38;;;;;;;9.60;8.70;;;6.60;99.90;;;;;;5053011;28;20509;-52
2023/04/16 07:46:05;;;;;;;10.63;9.10;;;6.70;99.90;;;;;;5052695;28;20539;-52
2023/04/16 07:48:32;;;;;;;9.83;8.93;;;6.70;99.90;;;;;;5049666;28;20856;-53
2023/04/16 07:50:59;;;;;;;10.23;9.27;;;6.80;99.90;;;;;;5051473;28;20489;-52
2023/04/16 07:53:26;;;;;;;9.77;8.80;;;6.80;99.90;;;;;;5051973;28;20993;-53
2023/04/16 07:55:54;;;;;;;11.40;10.20;;;6.80;99.90;;;;;;5049184;28;20520;-54
2023/04/16 07:58:21;;;;;;;10.27;9.20;;;6.80;99.90;;;;;;5051550;28;20442;-53
2023/04/16 08:00:48;;;;;;;10.80;9.70;;;6.90;99.90;;;;;;5033029;28;20896;-52
2023/04/16 08:03:15;;;;;;;10.83;9.17;;;6.90;99.90;;;;;;5050231;28;20477;-54
2023/04/16 08:05:42;;;;;;;10.60;9.60;;;6.90;99.90;;;;;;5051289;28;20441;-52
2023/04/16 08:08:09;;;;;;;10.27;9.27;;;7.00;99.90;;;;;;5050176;28;21004;-54
2023/04/16 08:10:36;;;;;;;9.97;8.97;;;6.90;99.90;;;;;;5039454;28;20482;-53
2023/04/16 08:13:05;;;;;;;10.67;9.40;;;6.90;99.90;;;;;;5047976;28;20445;-55
2023/04/16 08:15:31;;;;;;;9.53;8.53;;;6.90;99.90;;;;;;5051762;28;20474;-54
2023/04/16 08:17:59;;;;;;;10.47;9.17;;;7.00;99.90;;;;;;5050400;28;20971;-55
2023/04/16 08:20:26;;;;;;;9.23;8.33;;;7.00;99.90;;;;;;5042463;28;20488;-54
2023/04/16 08:22:54;;;;;;;8.07;7.27;;;7.10;99.90;;;;;;5050913;28;20480;-54
2023/04/16 08:25:22;;;;;;;9.47;8.47;;;7.10;99.90;;;;;;5050820;28;20528;-53
2023/04/16 08:27:49;;;;;;;9.20;7.93;;;7.10;99.90;;;;;;5050970;28;20442;-53
2023/04/16 08:30:17;;;;;;;8.20;7.40;;;7.00;99.90;;;;;;5051235;28;20576;-53
2023/04/16 08:32:44;;;;;;;8.40;6.90;;;6.90;99.90;;;;;;5051432;28;20504;-52
2023/04/16 08:35:12;;;;;;;7.80;6.90;;;6.90;99.90;;;;;;5051650;28;20697;-54
2023/04/16 08:37:39;;;;;;;8.27;7.37;;;6.90;99.90;;;;;;5051223;28;20441;-53
2023/04/16 08:40:07;;;;;;;7.43;6.67;;;7.00;99.90;;;;;;5051685;28;20971;-53
2023/04/16 08:42:39;;;;;;;8.47;7.53;;;7.10;99.90;;;;;;5051290;28;20537;-52
2023/04/16 08:45:08;;;;;;;8.30;7.30;;;7.10;99.90;;;;;;5052231;28;20473;-52
2023/04/16 08:47:36;;;;;;;10.70;7.57;;;7.10;99.90;;;;;;5052075;28;20525;-52
2023/04/16 08:50:05;;;;;;;6.60;6.00;;;7.10;99.90;;;;;;5051050;28;20726;-53
2023/04/16 08:52:32;;;;;;;9.87;7.03;;;7.00;99.90;;;;;;5051549;28;20442;-52
2023/04/16 08:55:05;;;;;;;6.60;6.00;;;7.00;99.90;;;;;;5051942;28;20469;-53
2023/04/16 08:57:39;;;;;;;7.67;6.90;;;7.00;99.90;;;;;;5048549;28;20468;-53
2023/04/16 09:00:08;;;;;;;9.37;7.07;;;6.90;99.90;;;;;;5050146;28;20500;-52
2023/04/16 09:02:37;;;;;;;8.27;6.40;;;6.90;99.90;;;;;;5050289;28;20565;-54
2023/04/16 09:05:07;;;;;;;7.97;7.27;;;7.00;99.90;;;;;;5051586;28;20492;-53
2023/04/16 09:07:34;;;;;;;7.30;6.30;;;7.10;99.90;;;;;;5051295;28;20751;-53
2023/04/16 09:10:01;;;;;;;7.23;6.50;;;7.20;99.90;;;;;;5051312;28;20466;-52
2023/04/16 09:12:30;;;;;;;6.90;5.80;;;7.30;99.90;;;;;;5050146;28;20442;-54
2023/04/16 09:14:58;;;;;;;6.90;6.20;;;7.20;99.90;;;;;;5049905;28;20442;-54
2023/04/16 09:17:26;;;;;;;6.77;6.07;;;7.10;99.90;;;;;;5050118;28;20489;-55
2023/04/16 09:19:54;;;;;;;6.30;5.50;;;7.10;99.90;;;;;;5049939;28;21117;-53
2023/04/16 09:22:21;;;;;;;6.83;6.07;;;7.10;99.90;;;;;;5049707;28;20438;-53
2023/04/16 09:24:48;;;;;;;7.30;5.90;;;7.10;99.90;;;;;;5048718;28;20571;-54
2023/04/16 09:27:15;;;;;;;5.80;4.80;;;7.20;99.90;;;;;;5049461;28;20537;-54
2023/04/16 09:29:42;;;;;;;6.30;5.20;;;7.20;99.90;;;;;;5049610;28;20529;-51
2023/04/16 09:32:10;;;;;;;5.13;4.63;;;7.20;99.90;;;;;;5049473;28;21032;-52
2023/04/16 09:34:57;;;;;;;6.03;4.70;;;7.40;99.90;;;;;;5051279;28;20504;-54
2023/04/16 09:37:25;;;;;;;5.83;5.07;;;7.40;99.90;;;;;;5051719;28;20487;-52
2023/04/16 09:39:56;;;;;;;5.80;5.20;;;7.40;99.90;;;;;;5051009;28;20553;-53
2023/04/16 09:42:26;;;;;;;6.73;5.23;;;7.50;99.90;;;;;;5050554;28;20525;-53
2023/04/16 09:44:53;;;;;;;5.73;4.87;;;7.50;99.90;;;;;;5050406;28;20485;-51
2023/04/16 09:47:20;;;;;;;5.60;4.77;;;7.60;99.90;;;;;;5053557;23;21025;-55
2023/04/16 09:49:48;;;;;;;5.83;5.20;;;7.60;99.90;;;;;;5007487;28;20483;-54
2023/04/16 09:52:17;;;;;;;5.80;5.20;;;7.60;99.90;;;;;;5008783;28;21018;-53
2023/04/16 09:54:48;;;;;;;5.87;5.10;;;7.60;99.90;;;;;;5009806;28;20486;-53
2023/04/16 09:57:19;;;;;;;6.10;4.97;;;7.60;99.90;;;;;;5008922;28;20546;-54
2023/04/16 09:59:46;;;;;;;4.93;4.43;;;7.50;99.90;;;;;;5008880;28;20530;-53
2023/04/16 10:02:13;;;;;;;5.80;4.90;;;7.40;99.90;;;;;;5009017;28;20540;-53
2023/04/16 10:04:50;;;;;;;5.53;5.03;;;7.40;99.90;;;;;;5008708;28;20515;-54
2023/04/16 10:07:19;;;;;;;6.20;5.60;;;7.50;99.90;;;;;;5007610;28;20902;-53
2023/04/16 10:09:48;;;;;;;5.77;5.23;;;7.60;99.90;;;;;;5008125;28;20820;-54
2023/04/16 10:12:16;;;;;;;5.73;5.13;;;7.70;99.90;;;;;;5007395;28;20506;-54
2023/04/16 10:14:43;;;;;;;5.77;5.17;;;7.80;99.90;;;;;;5009114;28;20483;-54
2023/04/16 10:17:10;;;;;;;6.03;4.80;;;7.80;99.90;;;;;;5008583;28;20499;-54
2023/04/16 10:19:37;;;;;;;5.50;4.90;;;7.90;99.90;;;;;;5009149;28;20460;-54
2023/04/16 10:22:04;;;;;;;4.60;4.20;;;8.00;99.90;;;;;;5008824;28;20443;-54
2023/04/16 10:24:34;;;;;;;5.57;4.87;;;8.00;99.90;;;;;;5008901;28;20521;-53
2023/04/16 10:27:02;;;;;;;6.20;5.10;;;8.00;99.90;;;;;;5008400;28;20542;-54
2023/04/16 10:29:31;;;;;;;6.70;4.90;;;7.80;99.90;;;;;;5008391;28;20475;-54
2023/04/16 10:31:59;;;;;;;4.67;4.23;;;7.80;99.90;;;;;;5006072;28;20439;-54
2023/04/16 10:34:27;;;;;;;4.63;4.10;;;7.90;99.90;;;;;;5008278;28;20522;-54
2023/04/16 10:36:55;;;;;;;5.33;4.60;;;7.90;99.90;;;;;;5007956;28;20966;-56
2023/04/16 10:39:23;;;;;;;4.60;4.20;;;8.00;99.90;;;;;;5008119;28;20471;-53
2023/04/16 10:42:07;;;;;;;4.67;4.27;;;8.00;99.90;;;;;;5006060;28;20908;-54
2023/04/16 10:44:34;;;;;;;4.00;3.60;;;8.00;99.90;;;;;;5008041;28;20925;-54
2023/04/16 10:47:01;;;;;;;5.07;4.00;;;8.10;99.90;;;;;;5007702;28;20846;-54
2023/04/16 10:49:29;;;;;;;4.20;3.80;;;8.00;99.90;;;;;;5007446;28;20527;-54
2023/04/16 10:51:57;;;;;;;4.57;4.00;;;7.90;99.90;;;;;;5007066;28;20447;-54
2023/04/16 10:54:26;;;;;;;4.87;4.40;;;7.80;99.90;;;;;;5008204;28;20518;-54
2023/04/16 10:56:57;;;;;;;4.63;3.50;;;8.00;99.90;;;;;;5007105;28;21024;-54
2023/04/16 10:59:25;;;;;;;3.33;3.03;;;8.10;99.90;;;;;;5008340;28;20817;-54
2023/04/16 11:01:54;;;;;;;4.23;3.80;;;8.20;99.90;;;;;;5008460;28;20557;-53
2023/04/16 11:04:29;;;;;;;3.90;3.50;;;8.30;99.90;;;;;;5008613;28;20491;-54
2023/04/16 11:07:04;;;;;;;3.90;3.50;;;8.10;99.90;;;;;;5007999;28;20495;-54
2023/04/16 11:09:55;;;;;;;4.33;3.27;;;8.20;99.90;;;;;;5008096;28;20866;-55
2023/04/16 11:12:26;;;;;;;3.90;3.53;;;8.30;99.90;;;;;;5006644;28;20530;-54
2023/04/16 11:14:54;;;;;;;4.07;3.70;;;8.30;99.90;;;;;;5008404;28;20827;-53
2023/04/16 11:17:22;;;;;;;3.17;2.87;;;8.30;99.90;;;;;;5007874;28;20577;-53
2023/04/16 11:19:49;;;;;;;3.70;3.40;;;8.30;99.90;;;;;;5008130;28;20482;-54
2023/04/16 11:22:17;;;;;;;4.10;3.77;;;8.20;99.90;;;;;;5008046;28;20473;-54
2023/04/16 11:24:47;;;;;;;3.77;3.47;;;8.20;99.90;;;;;;5008511;28;20574;-55
2023/04/16 11:27:14;;;;;;;4.10;3.80;;;8.10;99.90;;;;;;5008260;28;20471;-54
2023/04/16 11:29:43;;;;;;;4.17;3.70;;;8.30;99.90;;;;;;5006977;28;20471;-55
2023/04/16 11:32:10;;;;;;;4.13;3.70;;;8.50;99.90;;;;;;5006450;28;20482;-54
2023/04/16 11:34:44;;;;;;;3.80;3.50;;;8.60;99.90;;;;;;5006589;28;20505;-54
2023/04/16 11:37:11;;;;;;;3.83;3.53;;;8.80;99.90;;;;;;5006581;28;20478;-54
2023/04/16 11:39:49;;;;;;;3.63;3.33;;;8.80;99.90;;;;;;5006978;28;20438;-54
2023/04/16 11:42:21;;;;;;;4.17;3.77;;;9.10;99.90;;;;;;5005270;28;20443;-54
2023/04/16 11:44:52;;;;;;;4.37;3.97;;;9.10;99.90;;;;;;5007960;28;20493;-55
2023/04/16 11:47:19;;;;;;;3.47;3.17;;;9.10;99.90;;;;;;5009780;28;20479;-55
2023/04/16 11:49:46;;;;;;;4.07;3.67;;;9.30;99.90;;;;;;5011239;28;20448;-54
2023/04/16 11:52:14;;;;;;;3.27;2.80;;;9.30;99.90;;;;;;5012325;28;20486;-54
2023/04/16 11:54:41;;;;;;;3.40;3.10;;;9.40;99.90;;;;;;5011805;28;20494;-55
2023/04/16 11:57:08;;;;;;;3.20;2.90;;;9.40;99.90;;;;;;5011405;28;20557;-53
2023/04/16 11:59:35;;;;;;;4.50;3.13;;;9.50;99.90;;;;;;5011473;28;20821;-55
2023/04/16 12:02:04;;;;;;;3.47;3.00;;;9.50;99.90;;;;;;5011512;28;20474;-53
2023/04/16 12:04:33;;;;;;;3.10;2.90;;;9.70;99.90;;;;;;5011431;28;20565;-54
2023/04/16 12:07:08;;;;;;;3.80;3.40;;;9.80;99.90;;;;;;5011261;28;20505;-54
2023/04/16 12:09:35;;;;;;;12.90;10.90;;;9.70;99.90;;;;;;5011474;28;20537;-55
2023/04/16 12:12:03;;;;;;;5.10;3.60;;;9.80;99.90;;;;;;5010277;28;20475;-54
2023/04/16 12:14:30;;;;;;;3.70;3.40;;;9.60;99.90;;;;;;5011498;28;21120;-54
2023/04/16 12:17:18;;;;;;;3.53;3.27;;;9.50;99.90;;;;;;5010466;28;20542;-55
2023/04/16 12:19:52;;;;;;;3.93;3.30;;;9.50;99.90;;;;;;5011465;28;20447;-55
2023/04/16 12:22:30;;;;;;;3.50;3.13;;;9.60;99.90;;;;;;5010346;28;20487;-54
2023/04/16 12:24:59;;;;;;;3.47;3.17;;;9.70;99.90;;;;;;5009657;28;20571;-55
2023/04/16 12:27:27;;;;;;;3.67;3.17;;;9.80;99.90;;;;;;5009393;28;20836;-55
2023/04/16 12:30:05;;;;;;;3.30;2.87;;;9.70;99.90;;;;;;5009566;28;20483;-54
2023/04/16 12:32:33;;;;;;;3.90;3.10;;;9.60;99.90;;;;;;5009240;28;20959;-54
2023/04/16 12:35:00;;;;;;;3.07;2.80;;;9.70;99.90;;;;;;5009536;28;20482;-53
2023/04/16 12:37:27;;;;;;;3.67;2.77;;;9.70;99.90;;;;;;5010032;28;20978;-54
2023/04/16 12:39:54;;;;;;;2.50;2.30;;;9.70;99.90;;;;;;5008958;28;20533;-55
2023/04/16 12:42:21;;;;;;;4.20;2.70;;;9.60;99.90;;;;;;5008640;28;20938;-53
2023/04/16 12:44:48;;;;;;;3.20;2.90;;;9.60;99.90;;;;;;5011139;28;20578;-53
2023/04/16 12:47:15;;;;;;;3.07;2.60;;;9.70;99.90;;;;;;5007235;28;20578;-54
2023/04/16 12:49:44;;;;;;;3.93;2.37;;;9.80;99.90;;;;;;5008449;28;20463;-54
2023/04/16 12:52:11;;;;;;;2.87;2.40;;;9.90;99.90;;;;;;4991361;28;20469;-54
2023/04/16 12:54:38;;;;;;;2.70;2.50;;;9.90;99.90;;;;;;4998481;28;20479;-55
2023/04/16 12:57:05;;;;;;;3.27;2.97;;;10.00;99.90;;;;;;4990479;28;20512;-54
2023/04/16 12:59:32;;;;;;;4.80;2.87;;;10.00;99.90;;;;;;4990495;28;20451;-54